Time;durP1;ratioP1;P1;durP2;ratioP2;P2;SDS_P1;SDS_P2;PMS_P1;PMS_P2;Temp;Humidity;BMP_temperature;BMP_pressure;BME280_temperature;BME280_humidity;BME280_pressure;Samples;Min_cycle;Max_cycle;Signal;HPM_P1;HPM_P2
2022/11/24 00:01:43;;;;;;;15.95;7.72;;;;;;;;;;5008959;28;20018;-75
2022/11/24 00:04:12;;;;;;;12.15;6.88;;;;;;;;;;5006274;28;20048;-75
2022/11/24 00:06:38;;;;;;;13.88;7.78;;;;;;;;;;5004383;28;20097;-74
2022/11/24 00:09:04;;;;;;;16.70;7.65;;;;;;;;;;5007076;28;20057;-74
2022/11/24 00:11:33;;;;;;;13.65;7.93;;;;;;;;;;5010474;28;20566;-74
2022/11/24 00:13:59;;;;;;;14.18;7.57;;;;;;;;;;5008338;28;20113;-74
2022/11/24 00:16:27;;;;;;;20.13;8.98;;;;;;;;;;5014555;28;20029;-75
2022/11/24 00:18:55;;;;;;;13.93;8.02;;;;;;;;;;5018715;28;20070;-74
2022/11/24 00:21:22;;;;;;;15.45;7.75;;;;;;;;;;5010759;28;20034;-74
2022/11/24 00:23:49;;;;;;;15.35;7.53;;;;;;;;;;5008499;28;20046;-74
2022/11/24 00:26:18;;;;;;;16.88;8.93;;;;;;;;;;5009070;28;20064;-73
2022/11/24 00:28:46;;;;;;;13.38;8.10;;;;;;;;;;5013759;28;20038;-75
2022/11/24 00:31:18;;;;;;;14.88;8.68;;;;;;;;;;5015945;28;20040;-73
2022/11/24 00:33:46;;;;;;;14.38;8.68;;;;;;;;;;5002854;28;20488;-74
2022/11/24 00:36:12;;;;;;;13.05;8.15;;;;;;;;;;5010231;28;20346;-74
2022/11/24 00:38:39;;;;;;;15.15;8.48;;;;;;;;;;5013157;28;20038;-74
2022/11/24 00:41:05;;;;;;;13.75;8.50;;;;;;;;;;5014261;28;20293;-74
2022/11/24 00:43:32;;;;;;;14.38;8.63;;;;;;;;;;4996921;28;20117;-74
2022/11/24 00:45:57;;;;;;;16.13;8.80;;;;;;;;;;4995794;28;20030;-75
2022/11/24 00:48:24;;;;;;;16.75;8.98;;;;;;;;;;5014392;28;20456;-74
2022/11/24 00:51:02;;;;;;;17.38;10.65;;;;;;;;;;5014212;28;20026;-74
2022/11/24 00:53:28;;;;;;;18.70;10.18;;;;;;;;;;5013467;28;20038;-75
2022/11/24 00:55:55;;;;;;;18.58;10.60;;;;;;;;;;5013839;28;20057;-74
2022/11/24 00:58:22;;;;;;;18.08;11.23;;;;;;;;;;5010325;28;20045;-75
2022/11/24 01:00:48;;;;;;;17.63;9.70;;;;;;;;;;5014295;28;20033;-74
2022/11/24 01:03:15;;;;;;;18.90;8.82;;;;;;;;;;5004295;28;20038;-75
2022/11/24 01:05:41;;;;;;;16.58;9.25;;;;;;;;;;4994882;28;20034;-74
2022/11/24 01:08:07;;;;;;;28.58;9.73;;;;;;;;;;4994784;28;20030;-74
2022/11/24 01:10:34;;;;;;;17.35;9.18;;;;;;;;;;4994856;28;20376;-74
2022/11/24 01:13:00;;;;;;;16.17;8.23;;;;;;;;;;4994332;28;20028;-74
2022/11/24 01:15:26;;;;;;;11.15;7.47;;;;;;;;;;4997124;28;20037;-74
2022/11/24 01:17:52;;;;;;;11.07;6.60;;;;;;;;;;5013915;28;20499;-74
2022/11/24 01:20:18;;;;;;;8.40;5.90;;;;;;;;;;5013793;28;20480;-74
2022/11/24 01:22:47;;;;;;;12.20;7.75;;;;;;;;;;5013654;28;20046;-74
2022/11/24 01:25:13;;;;;;;12.70;7.55;;;;;;;;;;5014040;28;20402;-74
2022/11/24 01:27:39;;;;;;;12.88;7.90;;;;;;;;;;5013583;28;20041;-74
2022/11/24 01:30:06;;;;;;;17.25;8.55;;;;;;;;;;5013708;28;20037;-74
2022/11/24 01:32:34;;;;;;;12.98;8.25;;;;;;;;;;5019895;28;20041;-74
2022/11/24 01:35:01;;;;;;;14.30;8.48;;;;;;;;;;5014163;28;20030;-74
2022/11/24 01:37:27;;;;;;;12.65;7.75;;;;;;;;;;5013837;28;20077;-74
2022/11/24 01:39:53;;;;;;;16.80;7.85;;;;;;;;;;5013045;28;20053;-73
2022/11/24 01:42:19;;;;;;;15.40;8.10;;;;;;;;;;5009863;28;20404;-75
2022/11/24 01:44:48;;;;;;;11.55;7.45;;;;;;;;;;5012532;28;20116;-74
2022/11/24 01:47:34;;;;;;;14.13;7.90;;;;;;;;;;5021796;28;20061;-74
2022/11/24 01:50:02;;;;;;;15.60;7.80;;;;;;;;;;5013794;28;20044;-74
2022/11/24 01:56:11;;;;;;;14.88;8.73;;;;;;;;;;4974804;28;20044;-74
2022/11/24 01:58:40;;;;;;;16.48;9.25;;;;;;;;;;4977928;28;20185;-74
2022/11/24 02:01:07;;;;;;;19.13;10.10;;;;;;;;;;4976423;28;20041;-74
2022/11/24 02:03:37;;;;;;;20.42;10.00;;;;;;;;;;4984735;28;20569;-74
2022/11/24 02:06:14;;;;;;;18.85;9.88;;;;;;;;;;4971839;28;20472;-74
2022/11/24 02:09:12;;;;;;;21.92;9.82;;;;;;;;;;4971845;28;20035;-74
2022/11/24 02:11:39;;;;;;;20.40;10.45;;;;;;;;;;4958710;28;20057;-74
2022/11/24 02:14:08;;;;;;;21.23;9.85;;;;;;;;;;4972071;28;20035;-74
2022/11/24 02:16:35;;;;;;;17.75;9.88;;;;;;;;;;4984341;28;20070;-74
2022/11/24 02:19:12;;;;;;;19.58;10.32;;;;;;;;;;4990944;28;20492;-74
2022/11/24 02:21:38;;;;;;;15.23;10.43;;;;;;;;;;4991438;28;20065;-74
2022/11/24 02:24:34;;;;;;;17.00;10.57;;;;;;;;;;4991291;28;20501;-74
2022/11/24 02:27:00;;;;;;;19.42;10.02;;;;;;;;;;5010056;28;20053;-74
2022/11/24 02:29:26;;;;;;;15.82;9.35;;;;;;;;;;4996552;28;20137;-74
2022/11/24 02:31:58;;;;;;;13.90;9.60;;;;;;;;;;4993301;28;20129;-74
2022/11/24 02:34:24;;;;;;;15.52;9.00;;;;;;;;;;5011547;28;20034;-74
2022/11/24 02:36:50;;;;;;;17.15;9.07;;;;;;;;;;5012598;28;20033;-74
2022/11/24 02:39:16;;;;;;;13.68;8.57;;;;;;;;;;5012024;28;20081;-74
2022/11/24 02:41:46;;;;;;;15.68;7.60;;;;;;;;;;5011766;28;20368;-74
2022/11/24 02:44:14;;;;;;;14.85;8.70;;;;;;;;;;5011514;28;20034;-74
2022/11/24 02:46:40;;;;;;;16.63;5.97;;;;;;;;;;5009765;28;20025;-73
2022/11/24 02:49:06;;;;;;;12.52;7.05;;;;;;;;;;5012295;28;20048;-74
2022/11/24 02:51:33;;;;;;;9.95;6.35;;;;;;;;;;5012967;28;20072;-74
2022/11/24 02:53:59;;;;;;;13.75;7.32;;;;;;;;;;5012328;28;20064;-74
2022/11/24 02:56:26;;;;;;;12.15;7.43;;;;;;;;;;5008491;28;20437;-74
2022/11/24 02:58:52;;;;;;;11.05;6.75;;;;;;;;;;5012320;28;20060;-74
2022/11/24 03:01:18;;;;;;;16.30;8.70;;;;;;;;;;5011266;28;20480;-74
2022/11/24 03:03:44;;;;;;;19.08;10.30;;;;;;;;;;5012653;28;20483;-74
2022/11/24 03:06:10;;;;;;;18.08;10.90;;;;;;;;;;5012090;28;20032;-74
2022/11/24 03:08:36;;;;;;;14.02;8.95;;;;;;;;;;5012295;28;20108;-74
2022/11/24 03:11:02;;;;;;;12.25;6.70;;;;;;;;;;5012250;28;20022;-75
2022/11/24 03:13:28;;;;;;;11.30;6.63;;;;;;;;;;5011983;28;20500;-74
2022/11/24 03:15:54;;;;;;;11.60;6.20;;;;;;;;;;5012022;28;20486;-74
2022/11/24 03:18:20;;;;;;;14.77;6.10;;;;;;;;;;5013461;28;20072;-74
2022/11/24 03:20:46;;;;;;;9.20;5.68;;;;;;;;;;5015629;28;20424;-74
2022/11/24 03:23:11;;;;;;;9.30;4.30;;;;;;;;;;5015534;28;20046;-75
2022/11/24 03:25:37;;;;;;;8.25;4.25;;;;;;;;;;5015391;28;20395;-75
2022/11/24 03:28:04;;;;;;;5.60;3.53;;;;;;;;;;5014447;28;20040;-74
2022/11/24 03:30:30;;;;;;;5.15;3.20;;;;;;;;;;5015500;28;20022;-75
2022/11/24 03:32:56;;;;;;;8.70;3.30;;;;;;;;;;5015915;28;20069;-74
2022/11/24 03:35:22;;;;;;;8.13;3.50;;;;;;;;;;5012785;28;20045;-74
2022/11/24 03:37:48;;;;;;;13.70;4.30;;;;;;;;;;5011989;28;20038;-74
2022/11/24 03:40:14;;;;;;;11.77;4.38;;;;;;;;;;5012175;28;20030;-74
2022/11/24 03:42:40;;;;;;;8.35;4.63;;;;;;;;;;5012346;28;20388;-74
2022/11/24 03:45:06;;;;;;;9.70;4.65;;;;;;;;;;5011830;28;20026;-74
2022/11/24 03:47:32;;;;;;;8.40;4.15;;;;;;;;;;5012017;28;20041;-73
2022/11/24 03:49:58;;;;;;;11.52;4.72;;;;;;;;;;5013137;28;20022;-74
2022/11/24 03:52:25;;;;;;;9.77;4.30;;;;;;;;;;5011580;28;20046;-73
2022/11/24 03:54:52;;;;;;;8.27;4.13;;;;;;;;;;5011977;28;20033;-74
2022/11/24 03:57:18;;;;;;;6.47;3.40;;;;;;;;;;5011617;28;20030;-74
2022/11/24 03:59:44;;;;;;;5.30;3.35;;;;;;;;;;5011710;28;20458;-74
2022/11/24 04:02:09;;;;;;;9.18;3.20;;;;;;;;;;5011765;28;20026;-74
2022/11/24 04:04:35;;;;;;;6.22;3.53;;;;;;;;;;5015399;28;20368;-75
2022/11/24 04:07:01;;;;;;;8.52;4.35;;;;;;;;;;5015979;28;20096;-74
2022/11/24 04:09:27;;;;;;;8.93;4.85;;;;;;;;;;5014413;28;20411;-74
2022/11/24 04:14:38;;;;;;;9.55;4.50;;;;;;;;;;5015710;28;20436;-74
2022/11/24 04:17:03;;;;;;;8.27;3.78;;;;;;;;;;5013114;28;20022;-75
2022/11/24 04:19:30;;;;;;;9.95;3.65;;;;;;;;;;5015232;28;20462;-74
2022/11/24 04:21:55;;;;;;;7.03;4.22;;;;;;;;;;5014319;28;20029;-74
2022/11/24 04:24:21;;;;;;;12.77;5.10;;;;;;;;;;5014274;28;20038;-74
2022/11/24 04:26:47;;;;;;;13.15;5.15;;;;;;;;;;5014995;28;20042;-74
2022/11/24 04:29:13;;;;;;;10.65;5.00;;;;;;;;;;5014515;28;20034;-74
2022/11/24 04:31:38;;;;;;;16.13;6.03;;;;;;;;;;5014574;28;20376;-74
2022/11/24 04:34:04;;;;;;;15.57;5.78;;;;;;;;;;5014935;28;20037;-74
2022/11/24 04:36:30;;;;;;;11.57;4.32;;;;;;;;;;5015102;28;20037;-74
2022/11/24 04:38:56;;;;;;;15.15;4.85;;;;;;;;;;5014982;28;20499;-74
2022/11/24 04:41:22;;;;;;;12.63;4.53;;;;;;;;;;5014614;28;20022;-74
2022/11/24 04:43:49;;;;;;;10.88;4.60;;;;;;;;;;5013179;28;20371;-74
2022/11/24 04:46:15;;;;;;;17.02;5.18;;;;;;;;;;5014067;28;20488;-74
2022/11/24 04:48:41;;;;;;;13.40;5.85;;;;;;;;;;5014173;28;20033;-74
2022/11/24 04:51:07;;;;;;;15.63;5.45;;;;;;;;;;5013722;28;20396;-75
2022/11/24 04:53:33;;;;;;;11.80;5.00;;;;;;;;;;5014981;28;20045;-74
2022/11/24 04:55:58;;;;;;;15.73;5.68;;;;;;;;;;5016718;28;20032;-74
2022/11/24 04:58:24;;;;;;;9.88;5.05;;;;;;;;;;5016056;28;20116;-75
2022/11/24 05:00:50;;;;;;;9.90;4.78;;;;;;;;;;5014033;28;20385;-75
2022/11/24 05:03:16;;;;;;;16.70;6.45;;;;;;;;;;5014757;28;20048;-75
2022/11/24 05:05:41;;;;;;;9.73;5.57;;;;;;;;;;5015220;28;20025;-75
2022/11/24 05:08:08;;;;;;;12.50;6.25;;;;;;;;;;5014483;28;20488;-74
2022/11/24 05:10:36;;;;;;;12.45;6.07;;;;;;;;;;5014086;28;20022;-74
2022/11/24 05:13:05;;;;;;;14.05;5.35;;;;;;;;;;5014548;28;20045;-75
2022/11/24 05:15:31;;;;;;;11.65;6.40;;;;;;;;;;5001559;28;20839;-75
2022/11/24 05:17:57;;;;;;;21.60;7.88;;;;;;;;;;5013734;28;20041;-75
2022/11/24 05:20:24;;;;;;;18.90;8.52;;;;;;;;;;5014266;28;20094;-74
2022/11/24 05:22:50;;;;;;;18.70;7.47;;;;;;;;;;5004165;28;20077;-74
2022/11/24 05:25:17;;;;;;;14.48;6.95;;;;;;;;;;4994806;28;20066;-74
2022/11/24 05:27:43;;;;;;;19.70;7.28;;;;;;;;;;5013419;28;20033;-75
2022/11/24 05:30:09;;;;;;;15.73;5.95;;;;;;;;;;5013471;28;20105;-74
2022/11/24 05:32:35;;;;;;;13.00;6.15;;;;;;;;;;5013709;28;20034;-73
2022/11/24 05:35:03;;;;;;;9.57;5.40;;;;;;;;;;5013691;28;20498;-74
2022/11/24 05:37:29;;;;;;;19.35;6.57;;;;;;;;;;5007407;28;20408;-73
2022/11/24 05:39:54;;;;;;;16.90;5.97;;;;;;;;;;5012002;28;20083;-74
2022/11/24 05:45:05;;;;;;;15.93;7.68;;;;;;;;;;5012100;28;20486;-73
2022/11/24 05:47:31;;;;;;;17.17;6.97;;;;;;;;;;5012733;28;20480;-75
2022/11/24 05:49:57;;;;;;;17.52;7.57;;;;;;;;;;5012966;28;20037;-78
2022/11/24 05:52:23;;;;;;;17.33;6.40;;;;;;;;;;4998400;28;20022;-75
2022/11/24 05:54:48;;;;;;;12.50;5.20;;;;;;;;;;5006504;28;20069;-78
2022/11/24 05:57:16;;;;;;;14.50;5.93;;;;;;;;;;5011594;28;20387;-74
2022/11/24 05:59:42;;;;;;;20.83;9.68;;;;;;;;;;5010891;28;20052;-74
2022/11/24 06:02:08;;;;;;;15.32;8.48;;;;;;;;;;5004760;28;20341;-76
2022/11/24 06:04:35;;;;;;;17.42;8.90;;;;;;;;;;5009255;28;20032;-74
2022/11/24 06:07:02;;;;;;;19.10;9.50;;;;;;;;;;5008139;28;20231;-74
2022/11/24 06:09:28;;;;;;;13.45;7.97;;;;;;;;;;5008309;28;20034;-76
2022/11/24 06:11:54;;;;;;;12.00;7.13;;;;;;;;;;5010331;28;20033;-75
2022/11/24 06:14:20;;;;;;;10.32;6.45;;;;;;;;;;5010930;28;20096;-76
2022/11/24 06:16:46;;;;;;;17.33;8.43;;;;;;;;;;5011682;28;20037;-77
2022/11/24 06:19:12;;;;;;;18.38;8.93;;;;;;;;;;5008886;28;20554;-77
2022/11/24 06:21:39;;;;;;;13.98;7.38;;;;;;;;;;5008243;28;20044;-76
2022/11/24 06:24:05;;;;;;;19.48;7.28;;;;;;;;;;5009697;28;20575;-77
2022/11/24 06:26:31;;;;;;;23.95;8.52;;;;;;;;;;5008079;28;20494;-75
2022/11/24 06:28:58;;;;;;;20.92;8.30;;;;;;;;;;5011357;28;20029;-75
2022/11/24 06:31:24;;;;;;;17.92;8.13;;;;;;;;;;5012582;28;20463;-75
2022/11/24 06:33:50;;;;;;;21.00;8.02;;;;;;;;;;5011349;28;20096;-74
2022/11/24 06:36:15;;;;;;;17.88;9.40;;;;;;;;;;5012649;28;20383;-74
2022/11/24 06:38:41;;;;;;;18.90;8.32;;;;;;;;;;5009867;28;20061;-74
2022/11/24 06:41:12;;;;;;;17.92;6.80;;;;;;;;;;5012080;28;20022;-74
2022/11/24 06:43:37;;;;;;;14.45;5.90;;;;;;;;;;5011925;28;20041;-75
2022/11/24 06:46:03;;;;;;;13.48;6.50;;;;;;;;;;5012515;28;20088;-75
2022/11/24 06:48:30;;;;;;;16.27;7.03;;;;;;;;;;5011725;28;20428;-75
2022/11/24 06:51:01;;;;;;;13.45;5.93;;;;;;;;;;5012210;28;20018;-75
2022/11/24 06:53:36;;;;;;;12.82;6.05;;;;;;;;;;5012454;28;20033;-75
2022/11/24 06:56:04;;;;;;;18.23;6.82;;;;;;;;;;5012320;28;20029;-75
2022/11/24 06:58:30;;;;;;;13.02;5.43;;;;;;;;;;5010303;28;20022;-74
2022/11/24 07:00:56;;;;;;;16.58;5.90;;;;;;;;;;5012191;28;20416;-75
2022/11/24 07:03:22;;;;;;;11.25;5.10;;;;;;;;;;5012158;28;20034;-75
2022/11/24 07:05:49;;;;;;;9.68;5.30;;;;;;;;;;5011579;28;20038;-74
2022/11/24 07:08:15;;;;;;;6.57;4.30;;;;;;;;;;5013021;28;20083;-76
2022/11/24 07:10:40;;;;;;;11.07;5.53;;;;;;;;;;5012676;28;20427;-75
2022/11/24 07:13:07;;;;;;;10.77;5.53;;;;;;;;;;5012712;28;20107;-74
2022/11/24 07:15:33;;;;;;;14.45;5.43;;;;;;;;;;5011268;28;20484;-75
2022/11/24 07:17:59;;;;;;;11.70;5.82;;;;;;;;;;4994909;28;20029;-76
2022/11/24 07:20:25;;;;;;;13.52;8.45;;;;;;;;;;4992752;28;20049;-77
2022/11/24 07:22:57;;;;;;;10.73;5.05;;;;;;;;;;5007506;28;20049;-76
2022/11/24 07:25:26;;;;;;;13.85;6.32;;;;;;;;;;5014898;28;20042;-75
2022/11/24 07:27:59;;;;;;;15.70;5.93;;;;;;;;;;5014308;28;20486;-74
2022/11/24 07:30:27;;;;;;;11.77;5.72;;;;;;;;;;5012234;28;20042;-75
2022/11/24 07:33:00;;;;;;;14.85;6.40;;;;;;;;;;5014467;28;20033;-75
2022/11/24 07:35:27;;;;;;;14.07;7.22;;;;;;;;;;5010455;28;20076;-78
2022/11/24 07:37:54;;;;;;;32.85;23.23;;;;;;;;;;5011433;28;20025;-75
2022/11/24 07:40:20;;;;;;;17.30;9.30;;;;;;;;;;5009233;28;20099;-73
2022/11/24 07:42:46;;;;;;;15.52;7.85;;;;;;;;;;4993172;28;20117;-73
2022/11/24 07:45:12;;;;;;;15.88;8.18;;;;;;;;;;4992203;28;20519;-75
2022/11/24 07:47:39;;;;;;;19.45;8.60;;;;;;;;;;4992338;28;20065;-74
2022/11/24 07:50:08;;;;;;;13.25;8.10;;;;;;;;;;4993507;28;20030;-76
2022/11/24 07:52:34;;;;;;;14.63;7.22;;;;;;;;;;4994242;28;20022;-79
2022/11/24 07:55:00;;;;;;;15.50;9.23;;;;;;;;;;5000619;28;20510;-74
2022/11/24 07:57:27;;;;;;;15.38;8.63;;;;;;;;;;5012817;28;20022;-74
2022/11/24 07:59:54;;;;;;;17.20;7.35;;;;;;;;;;5012181;28;20120;-75
2022/11/24 08:02:20;;;;;;;14.82;7.07;;;;;;;;;;5011117;28;20071;-76
2022/11/24 08:04:46;;;;;;;15.88;6.75;;;;;;;;;;5012005;28;20041;-74
2022/11/24 08:07:12;;;;;;;8.77;4.75;;;;;;;;;;5012040;28;20479;-75
2022/11/24 08:09:38;;;;;;;15.73;6.57;;;;;;;;;;5012384;28;20375;-75
2022/11/24 08:12:04;;;;;;;15.23;5.55;;;;;;;;;;5012012;28;20037;-74
2022/11/24 08:14:30;;;;;;;10.80;4.93;;;;;;;;;;4994098;28;20045;-73
2022/11/24 08:16:57;;;;;;;14.30;5.97;;;;;;;;;;5011703;28;20494;-75
2022/11/24 08:19:23;;;;;;;10.10;4.90;;;;;;;;;;5011692;28;20030;-73
2022/11/24 08:21:49;;;;;;;7.78;4.18;;;;;;;;;;5012741;28;20022;-73
2022/11/24 08:24:15;;;;;;;10.60;4.30;;;;;;;;;;5012163;28;20071;-72
2022/11/24 08:26:42;;;;;;;12.43;4.20;;;;;;;;;;5010603;28;20025;-73
2022/11/24 08:29:08;;;;;;;11.85;4.50;;;;;;;;;;5009784;28;20040;-72
2022/11/24 08:31:37;;;;;;;10.02;4.53;;;;;;;;;;5010539;28;20065;-78
2022/11/24 08:34:04;;;;;;;7.38;3.60;;;;;;;;;;5011679;28;20041;-76
2022/11/24 08:36:31;;;;;;;11.95;4.22;;;;;;;;;;5011235;28;20029;-75
2022/11/24 08:38:59;;;;;;;8.27;3.70;;;;;;;;;;5009633;28;20172;-74
2022/11/24 08:41:25;;;;;;;9.93;4.38;;;;;;;;;;5010776;28;20022;-74
2022/11/24 08:43:52;;;;;;;9.85;4.43;;;;;;;;;;5010740;28;20042;-73
2022/11/24 08:46:18;;;;;;;14.60;4.30;;;;;;;;;;5011341;28;20030;-72
2022/11/24 08:48:53;;;;;;;11.63;4.47;;;;;;;;;;5012859;28;20495;-72
2022/11/24 08:51:23;;;;;;;8.52;3.63;;;;;;;;;;5015131;28;20034;-73
2022/11/24 08:53:57;;;;;;;9.55;3.97;;;;;;;;;;5015284;28;20477;-75
2022/11/24 08:56:24;;;;;;;10.35;3.80;;;;;;;;;;5015062;28;20084;-73
2022/11/24 08:58:49;;;;;;;7.90;3.60;;;;;;;;;;5008101;28;20052;-73
2022/11/24 09:01:17;;;;;;;15.80;4.95;;;;;;;;;;4995446;28;20034;-73
2022/11/24 09:03:44;;;;;;;10.73;3.95;;;;;;;;;;4993892;28;20022;-73
2022/11/24 09:06:10;;;;;;;10.73;3.75;;;;;;;;;;4995002;28;20088;-73
2022/11/24 09:08:36;;;;;;;6.88;4.30;;;;;;;;;;4993870;28;20022;-73
2022/11/24 09:11:05;;;;;;;12.35;4.40;;;;;;;;;;4994504;28;20038;-75
2022/11/24 09:13:31;;;;;;;7.57;3.78;;;;;;;;;;4995382;28;20032;-75
2022/11/24 09:16:03;;;;;;;8.27;3.90;;;;;;;;;;4995969;28;20034;-75
2022/11/24 09:18:30;;;;;;;11.15;3.95;;;;;;;;;;5013484;28;20103;-74
2022/11/24 09:21:08;;;;;;;10.13;4.20;;;;;;;;;;5014608;28;20033;-74
2022/11/24 09:23:35;;;;;;;8.35;3.33;;;;;;;;;;5012360;28;20423;-73
2022/11/24 09:26:13;;;;;;;8.52;3.63;;;;;;;;;;4995031;28;20034;-74
2022/11/24 09:28:40;;;;;;;6.10;3.25;;;;;;;;;;4995025;28;20034;-74
2022/11/24 09:31:08;;;;;;;5.95;3.60;;;;;;;;;;4995231;28;20412;-73
2022/11/24 09:33:35;;;;;;;6.60;3.83;;;;;;;;;;4994965;28;20038;-74
2022/11/24 09:36:01;;;;;;;6.10;2.83;;;;;;;;;;5011827;28;20392;-74
2022/11/24 09:38:27;;;;;;;6.57;2.53;;;;;;;;;;5007431;28;20441;-73
2022/11/24 09:40:54;;;;;;;8.57;2.80;;;;;;;;;;5014378;28;20105;-73
2022/11/24 09:43:43;;;;;;;10.98;3.50;;;;;;;;;;5012217;28;20399;-73
2022/11/24 09:46:19;;;;;;;7.85;3.30;;;;;;;;;;5013776;28;20125;-73
2022/11/24 09:48:52;;;;;;;5.28;2.92;;;;;;;;;;5014060;28;20034;-73
2022/11/24 09:51:21;;;;;;;7.32;3.03;;;;;;;;;;5012557;28;20068;-73
2022/11/24 09:54:08;;;;;;;4.95;2.78;;;;;;;;;;5013729;28;20510;-73
2022/11/24 09:56:37;;;;;;;5.85;2.60;;;;;;;;;;5014109;28;20030;-73
2022/11/24 09:59:12;;;;;;;4.40;2.60;;;;;;;;;;5013183;28;20021;-73
2022/11/24 10:01:41;;;;;;;7.05;2.67;;;;;;;;;;5012656;28;20057;-72
2022/11/24 10:04:28;;;;;;;8.48;2.45;;;;;;;;;;5013849;28;20029;-73
2022/11/24 10:07:11;;;;;;;8.20;3.33;;;;;;;;;;5013412;28;20033;-73
2022/11/24 10:09:53;;;;;;;4.93;2.70;;;;;;;;;;5013576;28;20160;-74
2022/11/24 10:12:37;;;;;;;5.80;2.50;;;;;;;;;;5013502;28;20068;-73
2022/11/24 10:15:15;;;;;;;6.68;2.78;;;;;;;;;;5013448;28;20511;-74
2022/11/24 10:18:14;;;;;;;9.15;2.75;;;;;;;;;;5013656;28;20041;-73
2022/11/24 10:20:48;;;;;;;5.35;2.42;;;;;;;;;;5013908;28;20037;-73
2022/11/24 10:23:20;;;;;;;3.28;2.28;;;;;;;;;;5013254;28;20499;-75
2022/11/24 10:25:46;;;;;;;8.77;4.40;;;;;;;;;;5013123;28;20042;-73
2022/11/24 10:28:14;;;;;;;12.70;3.53;;;;;;;;;;5002221;28;20108;-73
2022/11/24 10:30:40;;;;;;;3.80;2.30;;;;;;;;;;4993820;28;20034;-73
2022/11/24 10:33:12;;;;;;;7.70;2.10;;;;;;;;;;4993570;28;20026;-73
2022/11/24 10:35:46;;;;;;;3.83;1.90;;;;;;;;;;4993687;28;20030;-73
2022/11/24 10:38:30;;;;;;;3.88;2.00;;;;;;;;;;4993393;28;20045;-73
2022/11/24 10:41:02;;;;;;;4.07;2.20;;;;;;;;;;4993449;28;20074;-73
2022/11/24 10:43:28;;;;;;;4.88;2.17;;;;;;;;;;4993039;28;20041;-73
2022/11/24 10:46:25;;;;;;;3.85;1.70;;;;;;;;;;4993020;28;20030;-74
2022/11/24 10:48:59;;;;;;;3.17;1.80;;;;;;;;;;4992114;28;20065;-75
2022/11/24 10:51:46;;;;;;;4.90;2.30;;;;;;;;;;4993717;28;20030;-74
2022/11/24 10:54:19;;;;;;;4.88;1.70;;;;;;;;;;4993621;28;20042;-74
2022/11/24 10:56:47;;;;;;;3.05;1.75;;;;;;;;;;4993152;28;20046;-74
2022/11/24 10:59:51;;;;;;;5.35;2.30;;;;;;;;;;4992748;28;20485;-74
2022/11/24 11:02:38;;;;;;;3.33;1.77;;;;;;;;;;5009995;28;20042;-73
2022/11/24 11:05:23;;;;;;;5.60;2.08;;;;;;;;;;4993237;28;20341;-73
2022/11/24 11:07:49;;;;;;;3.13;1.67;;;;;;;;;;5012872;28;20120;-73
2022/11/24 11:10:18;;;;;;;3.33;2.15;;;;;;;;;;5012865;28;20034;-73
2022/11/24 11:12:44;;;;;;;5.30;2.03;;;;;;;;;;5011868;28;20052;-74
2022/11/24 11:15:29;;;;;;;3.45;1.77;;;;;;;;;;5012607;28;20036;-73
2022/11/24 11:17:57;;;;;;;5.13;1.40;;;;;;;;;;5011972;28;20115;-73
2022/11/24 11:20:30;;;;;;;3.75;2.00;;;;;;;;;;5013331;28;20022;-73
2022/11/24 11:22:58;;;;;;;4.03;1.50;;;;;;;;;;5012367;28;20456;-73
2022/11/24 11:25:32;;;;;;;5.97;2.00;;;;;;;;;;5010064;28;20065;-74
2022/11/24 11:28:25;;;;;;;3.58;1.70;;;;;;;;;;5009633;28;20473;-73
2022/11/24 11:31:02;;;;;;;2.72;1.23;;;;;;;;;;5010593;28;20512;-75
2022/11/24 11:33:30;;;;;;;3.90;1.02;;;;;;;;;;5011055;28;20183;-73
2022/11/24 11:36:00;;;;;;;2.28;1.10;;;;;;;;;;4981768;28;20080;-74
2022/11/24 11:38:35;;;;;;;3.63;1.02;;;;;;;;;;4993074;28;20113;-73
2022/11/24 11:41:02;;;;;;;6.57;2.25;;;;;;;;;;5000750;28;20030;-74
2022/11/24 11:43:33;;;;;;;2.70;0.85;;;;;;;;;;5012295;28;20049;-74
2022/11/24 11:46:16;;;;;;;3.90;1.00;;;;;;;;;;5012556;28;20555;-75
2022/11/24 11:48:46;;;;;;;2.00;0.90;;;;;;;;;;5011939;28;20099;-74
2022/11/24 11:51:33;;;;;;;1.83;0.88;;;;;;;;;;5010969;28;20366;-75
2022/11/24 11:54:31;;;;;;;1.88;0.63;;;;;;;;;;5012212;28;20057;-76
2022/11/24 11:57:16;;;;;;;1.73;0.80;;;;;;;;;;5011683;28;20042;-74
2022/11/24 12:00:16;;;;;;;1.52;0.70;;;;;;;;;;5012419;28;20056;-75
2022/11/24 12:03:06;;;;;;;2.47;1.10;;;;;;;;;;5012412;28;20033;-74
2022/11/24 12:06:04;;;;;;;1.30;0.80;;;;;;;;;;5010628;28;20033;-73
2022/11/24 12:08:55;;;;;;;2.10;0.93;;;;;;;;;;5012983;28;20104;-75
2022/11/24 12:11:41;;;;;;;2.80;1.05;;;;;;;;;;5011121;28;20480;-78
2022/11/24 12:14:18;;;;;;;1.95;0.82;;;;;;;;;;4991509;28;20041;-73
2022/11/24 12:16:57;;;;;;;2.70;1.00;;;;;;;;;;5011131;28;20133;-75
2022/11/24 12:20:01;;;;;;;1.35;0.63;;;;;;;;;;5011674;28;20038;-77
2022/11/24 12:23:03;;;;;;;2.60;1.25;;;;;;;;;;5011046;28;20176;-74
2022/11/24 12:25:35;;;;;;;4.43;1.30;;;;;;;;;;5014477;28;20068;-78
2022/11/24 12:28:22;;;;;;;1.67;0.80;;;;;;;;;;5016211;28;20041;-75
2022/11/24 12:31:05;;;;;;;2.25;0.90;;;;;;;;;;4998003;28;20319;-77
2022/11/24 12:33:50;;;;;;;1.05;0.70;;;;;;;;;;4995880;28;20085;-77
2022/11/24 12:36:33;;;;;;;2.22;0.90;;;;;;;;;;4996649;28;20400;-74
2022/11/24 12:39:26;;;;;;;3.05;1.50;;;;;;;;;;5012537;28;20033;-74
2022/11/24 12:42:23;;;;;;;3.15;1.02;;;;;;;;;;5015276;28;20030;-75
2022/11/24 12:45:07;;;;;;;1.75;0.80;;;;;;;;;;5009285;28;20117;-76
2022/11/24 12:47:54;;;;;;;3.25;1.17;;;;;;;;;;5002877;28;20053;-76
2022/11/24 12:50:27;;;;;;;2.97;0.75;;;;;;;;;;4995265;28;20507;-77
2022/11/24 12:53:03;;;;;;;3.30;1.17;;;;;;;;;;5006159;28;20418;-76
2022/11/24 12:55:32;;;;;;;3.63;1.60;;;;;;;;;;5014536;28;20531;-75
2022/11/24 12:58:24;;;;;;;2.30;1.00;;;;;;;;;;5014189;28;20506;-74
2022/11/24 13:01:28;;;;;;;5.47;1.70;;;;;;;;;;5013493;28;20049;-75
2022/11/24 13:04:03;;;;;;;5.88;1.50;;;;;;;;;;5011308;28;20156;-77
2022/11/24 13:06:53;;;;;;;5.80;1.20;;;;;;;;;;5002851;28;20488;-76
2022/11/24 13:09:21;;;;;;;3.03;1.00;;;;;;;;;;5009922;28;20507;-73
2022/11/24 13:12:11;;;;;;;3.78;1.20;;;;;;;;;;5012765;28;20037;-75
2022/11/24 13:14:41;;;;;;;1.90;0.90;;;;;;;;;;5014771;28;20033;-76
2022/11/24 13:17:30;;;;;;;3.78;0.80;;;;;;;;;;5005541;28;20079;-76
2022/11/24 13:20:14;;;;;;;3.58;1.17;;;;;;;;;;5013471;28;20057;-77
2022/11/24 13:22:59;;;;;;;5.18;1.10;;;;;;;;;;5013904;28;20077;-76
2022/11/24 13:25:32;;;;;;;2.40;1.20;;;;;;;;;;5010699;28;20033;-75
2022/11/24 13:28:02;;;;;;;5.03;1.70;;;;;;;;;;5014780;28;20054;-76
2022/11/24 13:30:34;;;;;;;6.65;1.92;;;;;;;;;;5014676;28;20408;-73
2022/11/24 13:33:15;;;;;;;2.30;0.95;;;;;;;;;;5011517;28;20048;-74
2022/11/24 13:36:06;;;;;;;3.13;1.20;;;;;;;;;;5009323;28;20104;-75
2022/11/24 13:39:03;;;;;;;16.55;2.42;;;;;;;;;;5003583;28;20038;-75
2022/11/24 13:41:31;;;;;;;3.83;1.25;;;;;;;;;;5003678;28;20445;-75
2022/11/24 13:44:12;;;;;;;6.93;1.27;;;;;;;;;;5012775;28;20029;-74
2022/11/24 13:46:58;;;;;;;9.38;2.47;;;;;;;;;;5009692;28;20110;-74
2022/11/24 13:49:35;;;;;;;2.55;1.08;;;;;;;;;;5009446;28;20068;-73
2022/11/24 13:52:35;;;;;;;2.70;1.30;;;;;;;;;;5010489;28;20048;-77
2022/11/24 13:55:26;;;;;;;3.63;1.83;;;;;;;;;;4987831;28;20380;-77
2022/11/24 13:57:55;;;;;;;1.90;1.30;;;;;;;;;;5007767;28;20033;-76
2022/11/24 14:00:27;;;;;;;3.08;1.20;;;;;;;;;;5011466;28;20502;-75
2022/11/24 14:03:05;;;;;;;3.47;1.40;;;;;;;;;;5009968;28;20099;-74
2022/11/24 14:05:44;;;;;;;13.35;3.00;;;;;;;;;;5005968;28;20085;-76
2022/11/24 14:08:26;;;;;;;3.75;1.73;;;;;;;;;;5013658;28;20041;-78
2022/11/24 14:10:53;;;;;;;4.35;1.10;;;;;;;;;;5008319;28;20030;-75
2022/11/24 14:13:22;;;;;;;4.80;1.65;;;;;;;;;;5014099;28;20030;-75
2022/11/24 14:16:15;;;;;;;6.95;1.60;;;;;;;;;;5012969;28;20030;-76
2022/11/24 14:18:44;;;;;;;3.17;1.55;;;;;;;;;;5011880;28;20037;-75
2022/11/24 14:21:24;;;;;;;6.10;1.40;;;;;;;;;;5010681;28;20025;-76
2022/11/24 14:23:57;;;;;;;2.80;0.90;;;;;;;;;;5009938;28;20041;-77
2022/11/24 14:26:27;;;;;;;2.10;1.10;;;;;;;;;;5002887;28;20057;-76
2022/11/24 14:29:02;;;;;;;2.67;1.27;;;;;;;;;;5001950;28;20033;-78
2022/11/24 14:31:27;;;;;;;5.32;1.30;;;;;;;;;;4998379;28;20045;-75
2022/11/24 14:34:11;;;;;;;4.53;2.10;;;;;;;;;;5009063;28;20037;-77
2022/11/24 14:36:38;;;;;;;4.57;1.80;;;;;;;;;;4999931;28;20030;-76
2022/11/24 14:39:04;;;;;;;3.17;2.13;;;;;;;;;;5005912;28;20088;-77
2022/11/24 14:41:32;;;;;;;7.55;2.40;;;;;;;;;;5006486;28;20065;-78
2022/11/24 14:44:34;;;;;;;5.38;2.35;;;;;;;;;;5009867;28;20033;-75
2022/11/24 14:47:25;;;;;;;4.90;2.80;;;;;;;;;;4992067;28;20042;-76
2022/11/24 14:49:52;;;;;;;4.20;2.00;;;;;;;;;;5003802;28;20033;-75
2022/11/24 14:52:22;;;;;;;5.72;2.00;;;;;;;;;;5005608;28;20022;-76
2022/11/24 14:54:55;;;;;;;3.05;1.80;;;;;;;;;;5005405;28;20042;-75
2022/11/24 14:57:39;;;;;;;4.03;2.17;;;;;;;;;;5003543;28;20066;-76
2022/11/24 15:00:23;;;;;;;4.57;2.97;;;;;;;;;;4989227;28;20099;-76
2022/11/24 15:03:01;;;;;;;4.40;2.33;;;;;;;;;;5002775;28;20053;-75
2022/11/24 15:05:50;;;;;;;4.85;2.45;;;;;;;;;;5001114;28;20034;-75
2022/11/24 15:08:18;;;;;;;7.28;2.72;;;;;;;;;;4977741;28;20085;-76
2022/11/24 15:10:44;;;;;;;3.83;2.50;;;;;;;;;;4997330;28;20033;-78